createdAt,value
2022-09-20T00:00:48.471Z,99.90
2022-09-20T00:03:16.832Z,99.90
2022-09-20T00:05:45.425Z,99.90
2022-09-20T00:08:14.483Z,99.90
2022-09-20T00:10:42.543Z,99.90
2022-09-20T00:13:12.911Z,99.90
2022-09-20T00:15:45.703Z,99.90
2022-09-20T00:18:13.372Z,99.90
2022-09-20T00:20:47.660Z,99.90
2022-09-20T00:23:14.607Z,99.90
2022-09-20T00:25:41.472Z,99.90
2022-09-20T00:28:09.198Z,99.90
2022-09-20T00:30:37.096Z,99.90
2022-09-20T00:33:03.963Z,99.90
2022-09-20T00:35:31.299Z,99.90
2022-09-20T00:37:58.015Z,99.90
2022-09-20T00:40:27.026Z,99.90
2022-09-20T00:42:54.905Z,99.90
2022-09-20T00:45:25.841Z,99.90
2022-09-20T00:48:24.442Z,99.90
2022-09-20T00:50:59.788Z,99.90
2022-09-20T00:53:31.893Z,99.90
2022-09-20T00:56:06.790Z,99.90
2022-09-20T00:58:36.845Z,99.90
2022-09-20T01:01:05.843Z,99.90
2022-09-20T01:03:35.589Z,99.90
2022-09-20T01:06:07.077Z,99.90
2022-09-20T01:08:35.309Z,99.90
2022-09-20T01:11:02.528Z,99.90
2022-09-20T01:13:29.222Z,99.90
2022-09-20T01:15:59.033Z,99.90
2022-09-20T01:18:26.945Z,99.90
2022-09-20T01:20:54.520Z,99.90
2022-09-20T01:23:31.797Z,99.90
2022-09-20T01:26:23.579Z,99.90
2022-09-20T01:28:58.540Z,99.90
2022-09-20T01:31:29.716Z,99.90
2022-09-20T01:34:09.605Z,99.90
2022-09-20T01:36:59.036Z,99.90
2022-09-20T01:39:50.805Z,99.90
2022-09-20T01:42:17.696Z,99.90
2022-09-20T01:45:08.708Z,99.90
2022-09-20T01:47:57.459Z,99.90
2022-09-20T01:50:37.204Z,99.90
2022-09-20T01:53:18.976Z,99.90
2022-09-20T01:56:03.806Z,99.90
2022-09-20T01:58:39.519Z,99.90
2022-09-20T02:02:03.949Z,99.90
2022-09-20T02:04:58.100Z,99.90
2022-09-20T02:07:54.748Z,99.90
2022-09-20T02:10:41.560Z,99.90
2022-09-20T02:13:33.351Z,99.90
2022-09-20T02:16:16.677Z,99.90
2022-09-20T02:18:46.361Z,99.90
2022-09-20T02:21:40.902Z,99.90
2022-09-20T02:24:27.329Z,99.90
2022-09-20T02:27:10.765Z,99.90
2022-09-20T02:30:13.122Z,99.90
2022-09-20T02:33:07.278Z,99.90
2022-09-20T02:36:01.292Z,99.90
2022-09-20T02:38:49.309Z,99.90
2022-09-20T02:41:24.777Z,99.90
2022-09-20T02:44:15.386Z,99.90
2022-09-20T02:47:04.667Z,99.90
2022-09-20T02:50:27.627Z,99.90
2022-09-20T02:53:06.124Z,99.90
2022-09-20T02:55:47.182Z,99.90
2022-09-20T02:58:41.237Z,99.90
2022-09-20T03:01:23.101Z,99.90
2022-09-20T03:04:05.185Z,99.90
2022-09-20T03:06:52.942Z,99.90
2022-09-20T03:09:28.967Z,99.90
2022-09-20T03:12:22.866Z,99.90
2022-09-20T03:15:00.496Z,99.90
2022-09-20T03:17:49.988Z,99.90
2022-09-20T03:20:28.679Z,99.90
2022-09-20T03:23:22.500Z,99.90
2022-09-20T03:26:02.361Z,99.90
2022-09-20T03:28:37.974Z,99.90
2022-09-20T03:31:21.643Z,99.90
2022-09-20T03:34:17.762Z,99.90
2022-09-20T03:36:47.193Z,99.90
2022-09-20T03:39:34.222Z,99.90
2022-09-20T03:42:20.205Z,99.90
2022-09-20T03:45:25.380Z,99.90
2022-09-20T03:48:01.088Z,99.90
2022-09-20T03:50:38.782Z,99.90
2022-09-20T03:53:43.080Z,99.90
2022-09-20T03:56:10.589Z,99.90
2022-09-20T03:59:05.591Z,99.90
2022-09-20T04:01:38.525Z,99.90
2022-09-20T04:04:08.546Z,99.90
2022-09-20T04:06:38.377Z,99.90
2022-09-20T04:09:05.083Z,99.90
2022-09-20T04:11:42.873Z,99.90
2022-09-20T04:14:28.092Z,99.90
2022-09-20T04:17:16.056Z,99.90
2022-09-20T04:19:53.409Z,99.90
2022-09-20T04:22:22.899Z,99.90
2022-09-20T04:24:56.172Z,99.90
2022-09-20T04:27:32.106Z,99.90
2022-09-20T04:30:10.747Z,99.90
2022-09-20T04:32:59.296Z,99.90
2022-09-20T04:36:12.461Z,99.90
2022-09-20T04:38:39.686Z,99.90
2022-09-20T04:41:40.543Z,99.90
2022-09-20T04:44:27.748Z,99.90
2022-09-20T04:47:09.703Z,99.90
2022-09-20T04:49:48.273Z,99.90
2022-09-20T04:52:17.685Z,99.90
2022-09-20T04:55:13.446Z,99.90
2022-09-20T04:58:22.376Z,99.90
2022-09-20T05:01:17.276Z,99.90
2022-09-20T05:04:02.569Z,99.90
2022-09-20T05:07:04.475Z,99.90
2022-09-20T05:10:08.363Z,99.90
2022-09-20T05:12:56.740Z,99.90
2022-09-20T05:15:38.417Z,99.90
2022-09-20T05:18:15.222Z,99.90
2022-09-20T05:21:06.607Z,99.90
2022-09-20T05:23:33.272Z,99.90
2022-09-20T05:26:14.860Z,99.90
2022-09-20T05:28:53.878Z,99.90
2022-09-20T05:31:51.769Z,99.90
2022-09-20T05:34:24.597Z,99.90
2022-09-20T05:37:18.302Z,99.90
2022-09-20T05:39:47.915Z,99.90
2022-09-20T05:42:26.794Z,99.90
2022-09-20T05:45:31.044Z,99.90
2022-09-20T05:48:12.472Z,99.90
2022-09-20T05:51:03.494Z,99.90
2022-09-20T05:54:08.556Z,99.90
2022-09-20T05:56:45.490Z,99.90
2022-09-20T05:59:21.397Z,99.90
2022-09-20T06:02:15.313Z,99.90
2022-09-20T06:05:06.817Z,99.90
2022-09-20T06:08:03.734Z,99.90
2022-09-20T06:11:02.855Z,99.90
2022-09-20T06:14:03.711Z,99.90
2022-09-20T06:16:43.228Z,99.90
2022-09-20T06:19:17.301Z,99.90
2022-09-20T06:21:52.550Z,99.90
2022-09-20T06:24:35.521Z,99.90
2022-09-20T06:27:08.788Z,99.90
2022-09-20T06:29:39.430Z,99.90
2022-09-20T06:32:06.116Z,99.90
2022-09-20T06:34:32.943Z,99.90
2022-09-20T06:37:38.442Z,99.90
2022-09-20T06:40:44.016Z,99.90
2022-09-20T06:43:14.519Z,99.90
2022-09-20T06:45:42.956Z,99.90
2022-09-20T06:48:11.628Z,99.90
2022-09-20T06:50:38.887Z,99.90
2022-09-20T06:53:06.791Z,99.90
2022-09-20T06:55:40.987Z,99.90
2022-09-20T06:58:09.802Z,99.90
2022-09-20T07:00:37.219Z,99.90
2022-09-20T07:03:04.039Z,99.90
2022-09-20T07:05:30.734Z,99.90
2022-09-20T07:07:58.974Z,99.90
2022-09-20T07:10:30.417Z,99.90
2022-09-20T07:13:01.802Z,99.90
2022-09-20T07:15:30.855Z,99.90
2022-09-20T07:17:57.549Z,99.90
2022-09-20T07:20:24.387Z,99.90
2022-09-20T07:22:51.130Z,99.90
2022-09-20T07:25:18.496Z,99.90
2022-09-20T07:27:46.527Z,99.90
2022-09-20T07:30:14.988Z,99.90
2022-09-20T07:32:42.153Z,99.90
2022-09-20T07:35:12.679Z,99.90
2022-09-20T07:37:42.841Z,99.90
2022-09-20T07:40:10.993Z,99.90
2022-09-20T07:42:38.014Z,99.90
2022-09-20T07:45:05.225Z,99.90
2022-09-20T07:47:35.242Z,99.90
2022-09-20T07:50:02.814Z,99.90
2022-09-20T07:52:29.562Z,99.90
2022-09-20T07:54:56.397Z,99.90
2022-09-20T07:57:23.396Z,99.90
2022-09-20T07:59:50.133Z,99.90
2022-09-20T08:02:17.200Z,99.90
2022-09-20T08:04:44.659Z,99.90
2022-09-20T08:07:12.708Z,99.90
2022-09-20T08:09:39.471Z,99.90
2022-09-20T08:14:55.459Z,99.90
2022-09-20T08:17:22.279Z,99.90
2022-09-20T08:19:48.996Z,99.90
2022-09-20T08:22:15.836Z,99.90
2022-09-20T08:24:44.205Z,99.90
2022-09-20T08:27:11.172Z,99.90
2022-09-20T08:29:38.131Z,99.90
2022-09-20T08:32:05.148Z,99.90
2022-09-20T08:34:31.995Z,99.90
2022-09-20T08:36:59.532Z,99.90
2022-09-20T08:42:18.375Z,99.90
2022-09-20T08:45:00.031Z,99.90
2022-09-20T08:47:35.764Z,99.90
2022-09-20T08:50:09.792Z,99.90
2022-09-20T08:52:40.785Z,99.90
2022-09-20T08:55:20.248Z,99.90
2022-09-20T08:57:55.332Z,99.90
2022-09-20T09:00:30.466Z,99.90
2022-09-20T09:03:01.284Z,99.90
2022-09-20T09:05:38.909Z,99.90
2022-09-20T09:08:21.236Z,99.90
2022-09-20T09:11:08.454Z,99.90
2022-09-20T09:13:56.551Z,99.90
2022-09-20T09:16:33.660Z,99.90
2022-09-20T09:19:33.266Z,99.90
2022-09-20T09:22:02.798Z,99.90
2022-09-20T09:24:33.348Z,99.90
2022-09-20T09:27:19.719Z,99.90
2022-09-20T09:29:54.954Z,99.90
2022-09-20T09:32:23.693Z,99.90
2022-09-20T09:34:50.826Z,99.90
2022-09-20T09:37:31.071Z,99.90
2022-09-20T09:40:13.237Z,99.90
2022-09-20T09:42:50.311Z,99.90
2022-09-20T09:45:30.486Z,99.90
2022-09-20T09:48:00.047Z,99.90
2022-09-20T09:50:34.805Z,99.90
2022-09-20T09:53:09.650Z,99.90
2022-09-20T09:56:03.911Z,99.90
2022-09-20T09:58:39.563Z,99.90
2022-09-20T10:01:17.814Z,99.90
2022-09-20T10:03:51.198Z,99.90
2022-09-20T10:06:26.739Z,99.90
2022-09-20T10:09:01.669Z,99.90
2022-09-20T10:11:33.741Z,99.90
2022-09-20T10:14:12.848Z,99.90
2022-09-20T10:17:05.760Z,96.10
2022-09-20T10:19:50.555Z,93.90
2022-09-20T10:23:06.644Z,93.60
2022-09-20T10:25:33.841Z,93.30
2022-09-20T10:28:28.194Z,93.20
2022-09-20T10:31:14.820Z,93.90
2022-09-20T10:33:50.730Z,92.00
2022-09-20T10:36:26.842Z,95.20
2022-09-20T10:39:02.262Z,95.50
2022-09-20T10:42:15.200Z,96.60
2022-09-20T10:45:06.475Z,96.70
2022-09-20T10:47:42.964Z,93.30
2022-09-20T10:50:26.154Z,94.40
2022-09-20T10:53:06.290Z,93.50
2022-09-20T10:56:13.202Z,88.90
2022-09-20T10:59:17.679Z,92.90
2022-09-20T11:01:47.406Z,91.60
2022-09-20T11:04:48.763Z,92.30
2022-09-20T11:07:24.108Z,92.00
2022-09-20T11:10:06.384Z,89.60
2022-09-20T11:12:56.361Z,85.70
2022-09-20T11:15:48.522Z,88.80
2022-09-20T11:18:28.259Z,85.70
2022-09-20T11:21:42.571Z,84.20
2022-09-20T11:24:21.007Z,88.30
2022-09-20T11:27:02.471Z,83.20
2022-09-20T11:29:37.069Z,90.00
2022-09-20T11:32:19.902Z,91.80
2022-09-20T11:35:14.699Z,90.50
2022-09-20T11:37:47.552Z,93.10
2022-09-20T11:40:34.682Z,91.50
2022-09-20T11:43:06.284Z,94.20
2022-09-20T11:45:34.232Z,93.60
2022-09-20T11:48:08.567Z,93.50
2022-09-20T11:51:04.788Z,95.50
2022-09-20T11:53:58.682Z,91.50
2022-09-20T11:56:31.138Z,91.60
2022-09-20T11:59:25.975Z,92.40
2022-09-20T12:01:56.605Z,92.80
2022-09-20T12:04:32.837Z,90.00
2022-09-20T12:07:18.302Z,88.80
2022-09-20T12:10:01.311Z,76.70
2022-09-20T12:12:37.627Z,79.80
2022-09-20T12:15:28.680Z,76.50
2022-09-20T12:17:58.283Z,74.40
2022-09-20T12:20:42.583Z,77.10
2022-09-20T12:23:37.673Z,85.40
2022-09-20T12:26:22.502Z,77.90
2022-09-20T12:28:53.259Z,78.10
2022-09-20T12:31:23.095Z,77.40
2022-09-20T12:34:11.648Z,74.50
2022-09-20T12:36:44.464Z,69.50
2022-09-20T12:39:11.136Z,72.30
2022-09-20T12:41:57.829Z,71.50
2022-09-20T12:44:49.402Z,70.00
2022-09-20T12:47:20.869Z,68.30
2022-09-20T12:50:06.491Z,64.30
2022-09-20T12:52:53.740Z,73.60
2022-09-20T12:55:33.057Z,71.00
2022-09-20T12:58:02.750Z,71.70
2022-09-20T13:00:36.874Z,73.10
2022-09-20T13:03:16.472Z,71.10
2022-09-20T13:05:46.276Z,73.80
2022-09-20T13:08:14.813Z,75.00
2022-09-20T13:10:50.130Z,69.10
2022-09-20T13:13:27.763Z,66.60
2022-09-20T13:15:55.395Z,68.90
2022-09-20T13:18:25.182Z,73.50
2022-09-20T13:20:52.662Z,70.20
2022-09-20T13:23:24.823Z,73.10
2022-09-20T13:25:51.958Z,74.00
2022-09-20T13:28:46.942Z,77.20
2022-09-20T13:31:31.751Z,80.00
2022-09-20T13:34:15.679Z,76.00
2022-09-20T13:36:42.780Z,80.20
2022-09-20T13:39:09.559Z,82.70
2022-09-20T13:41:37.921Z,80.00
2022-09-20T13:44:04.989Z,76.80
2022-09-20T13:46:33.542Z,77.30
2022-09-20T13:49:17.681Z,70.20
2022-09-20T13:51:44.441Z,65.70
2022-09-20T13:54:22.130Z,65.30
2022-09-20T13:56:50.775Z,67.50
2022-09-20T13:59:19.557Z,71.40
2022-09-20T14:01:54.862Z,70.40
2022-09-20T14:04:24.520Z,67.00
2022-09-20T14:06:53.754Z,63.90
2022-09-20T14:09:39.578Z,55.20
2022-09-20T14:12:07.185Z,54.20
2022-09-20T14:14:35.086Z,47.80
2022-09-20T14:17:06.426Z,44.70
2022-09-20T14:19:37.397Z,43.20
2022-09-20T14:22:05.324Z,42.30
2022-09-20T14:24:35.584Z,43.80
2022-09-20T14:27:16.526Z,45.70
2022-09-20T14:29:49.317Z,50.70
2022-09-20T14:32:26.830Z,54.40
2022-09-20T14:34:56.713Z,53.80
2022-09-20T14:37:48.679Z,53.80
2022-09-20T14:40:41.327Z,54.90
2022-09-20T14:43:28.680Z,59.50
2022-09-20T14:46:01.781Z,59.70
2022-09-20T14:48:42.978Z,58.70
2022-09-20T14:51:22.839Z,61.40
2022-09-20T14:54:13.881Z,60.80
2022-09-20T14:56:50.534Z,64.90
2022-09-20T14:59:17.182Z,62.20
2022-09-20T15:01:53.731Z,62.30
2022-09-20T15:04:27.043Z,62.60
2022-09-20T15:06:55.008Z,63.50
2022-09-20T15:09:22.258Z,65.20
2022-09-20T15:12:14.173Z,64.00
2022-09-20T15:14:41.481Z,61.50
2022-09-20T15:17:15.605Z,63.60
2022-09-20T15:19:42.332Z,62.70
2022-09-20T15:22:12.380Z,63.50
2022-09-20T15:24:39.225Z,65.20
2022-09-20T15:27:06.528Z,66.20
2022-09-20T15:29:33.689Z,63.90
2022-09-20T15:32:00.424Z,62.30
2022-09-20T15:34:27.240Z,64.00
2022-09-20T15:36:54.838Z,63.90
2022-09-20T15:39:22.572Z,66.00
2022-09-20T15:41:52.190Z,67.80
2022-09-20T15:44:19.330Z,68.30
2022-09-20T15:46:46.586Z,68.90
2022-09-20T15:49:13.360Z,69.10
2022-09-20T15:51:40.147Z,69.40
2022-09-20T15:54:07.704Z,68.70
2022-09-20T15:56:36.537Z,69.30
2022-09-20T15:59:08.920Z,67.50
2022-09-20T16:01:41.268Z,68.70
2022-09-20T16:04:13.385Z,70.80
2022-09-20T16:06:42.422Z,73.40
2022-09-20T16:09:09.485Z,76.90
2022-09-20T16:11:37.098Z,78.70
2022-09-20T16:14:04.211Z,81.10
2022-09-20T16:16:37.383Z,88.40
2022-09-20T16:19:20.428Z,87.80
2022-09-20T16:21:55.023Z,89.20
2022-09-20T16:24:28.685Z,91.10
2022-09-20T16:26:56.221Z,91.20
2022-09-20T16:29:23.563Z,91.30
2022-09-20T16:31:50.482Z,91.60
2022-09-20T16:34:23.006Z,93.20
2022-09-20T16:36:53.266Z,91.90
2022-09-20T16:39:25.285Z,85.50
2022-09-20T16:41:52.960Z,85.40
2022-09-20T16:44:19.653Z,87.80
2022-09-20T16:46:47.404Z,88.70
2022-09-20T16:49:16.789Z,92.00
2022-09-20T16:51:44.988Z,94.40
2022-09-20T16:54:13.929Z,99.90
2022-09-20T16:56:43.583Z,99.90
2022-09-20T16:59:10.866Z,99.90
2022-09-20T17:01:38.713Z,99.90
2022-09-20T17:04:06.097Z,99.90
2022-09-20T17:06:34.553Z,99.90
2022-09-20T17:09:01.488Z,99.90
2022-09-20T17:11:31.141Z,99.90
2022-09-20T17:13:58.291Z,99.90
2022-09-20T17:16:30.649Z,99.90
2022-09-20T17:19:00.105Z,99.90
2022-09-20T17:21:28.841Z,99.90
2022-09-20T17:23:58.268Z,99.90
2022-09-20T17:26:33.431Z,99.90
2022-09-20T17:29:02.235Z,99.90
2022-09-20T17:31:34.060Z,99.90
2022-09-20T17:34:02.305Z,99.90
2022-09-20T17:36:32.003Z,99.90
2022-09-20T17:39:03.787Z,99.90
2022-09-20T17:41:31.428Z,99.90
2022-09-20T17:43:59.635Z,99.90
2022-09-20T17:46:31.583Z,99.90
2022-09-20T17:49:04.844Z,99.90
2022-09-20T17:51:48.558Z,99.90
2022-09-20T17:54:15.546Z,99.90
2022-09-20T17:56:46.277Z,99.90
2022-09-20T17:59:16.104Z,99.90
2022-09-20T18:01:44.477Z,99.90
2022-09-20T18:04:12.551Z,99.90
2022-09-20T18:06:48.071Z,99.90
2022-09-20T18:09:16.763Z,99.90
2022-09-20T18:11:48.685Z,99.90
2022-09-20T18:14:20.876Z,99.90
2022-09-20T18:16:47.697Z,99.90
2022-09-20T18:19:16.024Z,99.90
2022-09-20T18:21:43.266Z,99.90
2022-09-20T18:24:11.199Z,99.90
2022-09-20T18:26:38.464Z,99.90
2022-09-20T18:29:13.845Z,99.90
2022-09-20T18:31:45.130Z,99.90
2022-09-20T18:34:20.363Z,99.90
2022-09-20T18:36:52.885Z,99.90
2022-09-20T18:39:24.627Z,99.90
2022-09-20T18:41:53.245Z,99.90
2022-09-20T18:44:21.541Z,99.90
2022-09-20T18:46:48.910Z,99.90
2022-09-20T18:49:17.090Z,99.90
2022-09-20T18:51:44.432Z,99.90
2022-09-20T18:54:12.227Z,99.90
2022-09-20T18:56:46.974Z,99.90
2022-09-20T18:59:18.440Z,99.90
2022-09-20T19:01:52.819Z,99.90
2022-09-20T19:04:53.722Z,99.90
2022-09-20T19:07:29.403Z,99.90
2022-09-20T19:09:58.953Z,99.90
2022-09-20T19:12:43.219Z,99.90
2022-09-20T19:15:35.981Z,99.90
2022-09-20T19:18:24.922Z,99.90
2022-09-20T19:21:15.016Z,99.90
2022-09-20T19:24:07.722Z,99.90
2022-09-20T19:26:38.776Z,99.90
2022-09-20T19:29:23.253Z,99.90
2022-09-20T19:31:53.563Z,99.90
2022-09-20T19:34:21.892Z,99.90
2022-09-20T19:37:02.518Z,99.90
2022-09-20T19:39:37.551Z,99.90
2022-09-20T19:42:32.031Z,99.90
2022-09-20T19:45:20.318Z,99.90
2022-09-20T19:48:17.289Z,99.90
2022-09-20T19:51:04.076Z,99.90
2022-09-20T19:53:31.126Z,99.90
2022-09-20T19:56:05.204Z,99.90
2022-09-20T19:58:32.701Z,99.90
2022-09-20T20:00:59.716Z,99.90
2022-09-20T20:03:27.547Z,99.90
2022-09-20T20:06:10.058Z,99.90
2022-09-20T20:08:48.685Z,99.90
2022-09-20T20:11:19.640Z,99.90
2022-09-20T20:14:03.293Z,99.90
2022-09-20T20:16:57.129Z,99.90
2022-09-20T20:19:39.261Z,99.90
2022-09-20T20:22:28.439Z,99.90
2022-09-20T20:24:58.988Z,99.90
2022-09-20T20:27:28.419Z,99.90
2022-09-20T20:29:55.781Z,99.90
2022-09-20T20:32:22.868Z,99.90
2022-09-20T20:34:49.863Z,99.90
2022-09-20T20:37:18.129Z,99.90
2022-09-20T20:39:44.916Z,99.90
2022-09-20T20:42:12.923Z,99.90
2022-09-20T20:44:40.030Z,99.90
2022-09-20T20:47:07.085Z,99.90
2022-09-20T20:49:34.011Z,99.90
2022-09-20T20:52:04.783Z,99.90
2022-09-20T20:54:32.469Z,99.90
2022-09-20T20:56:59.487Z,99.90
2022-09-20T20:59:26.741Z,99.90
2022-09-20T21:01:53.503Z,99.90
2022-09-20T21:04:21.673Z,99.90
2022-09-20T21:06:49.570Z,99.90
2022-09-20T21:09:16.692Z,99.90
2022-09-20T21:11:44.209Z,99.90
2022-09-20T21:14:12.486Z,99.90
2022-09-20T21:16:44.186Z,99.90
2022-09-20T21:19:15.134Z,99.90
2022-09-20T21:21:44.703Z,99.90
2022-09-20T21:24:13.500Z,99.90
2022-09-20T21:26:40.723Z,99.90
2022-09-20T21:29:12.863Z,99.90
2022-09-20T21:31:43.256Z,99.90
2022-09-20T21:34:12.226Z,99.90
2022-09-20T21:36:41.559Z,99.90
2022-09-20T21:39:08.930Z,99.90
2022-09-20T21:41:38.063Z,99.90
2022-09-20T21:44:06.127Z,99.90
2022-09-20T21:46:42.692Z,99.90
2022-09-20T21:49:11.617Z,99.90
2022-09-20T21:51:39.653Z,99.90
2022-09-20T21:54:06.545Z,99.90
2022-09-20T21:56:36.217Z,99.90
2022-09-20T21:59:04.632Z,99.90
2022-09-20T22:01:37.493Z,99.90
2022-09-20T22:04:07.107Z,99.90
2022-09-20T22:06:39.255Z,99.90
2022-09-20T22:09:10.306Z,99.90
2022-09-20T22:11:41.962Z,99.90
2022-09-20T22:14:09.817Z,99.90
2022-09-20T22:16:38.989Z,99.90
2022-09-20T22:19:07.839Z,99.90
2022-09-20T22:21:39.295Z,99.90
2022-09-20T22:24:08.686Z,99.90
2022-09-20T22:26:41.226Z,99.90
2022-09-20T22:29:08.158Z,99.90
2022-09-20T22:31:37.489Z,99.90
2022-09-20T22:34:06.482Z,99.90
2022-09-20T22:36:35.886Z,99.90
2022-09-20T22:39:04.181Z,99.90
2022-09-20T22:41:31.240Z,99.90
2022-09-20T22:43:57.919Z,99.90
2022-09-20T22:46:27.491Z,99.90
2022-09-20T22:48:54.840Z,99.90
2022-09-20T22:51:22.605Z,99.90
2022-09-20T22:53:50.085Z,99.90
2022-09-20T22:56:25.011Z,99.90
2022-09-20T22:58:54.014Z,99.90
2022-09-20T23:01:28.241Z,99.90
2022-09-20T23:03:59.007Z,99.90
2022-09-20T23:06:31.567Z,99.90
2022-09-20T23:09:02.562Z,99.90
2022-09-20T23:11:29.785Z,99.90
2022-09-20T23:13:59.034Z,99.90
2022-09-20T23:16:28.805Z,99.90
2022-09-20T23:18:57.693Z,99.90
2022-09-20T23:21:25.284Z,99.90
2022-09-20T23:23:56.974Z,99.90
2022-09-20T23:26:25.571Z,99.90
2022-09-20T23:28:57.523Z,99.90
2022-09-20T23:31:26.235Z,99.90
2022-09-20T23:33:58.478Z,99.90
2022-09-20T23:36:26.583Z,99.90
2022-09-20T23:38:53.925Z,99.90
2022-09-20T23:41:25.154Z,99.90
2022-09-20T23:43:52.295Z,99.90
2022-09-20T23:46:20.787Z,99.90
2022-09-20T23:48:48.010Z,99.90
2022-09-20T23:51:16.594Z,99.90
2022-09-20T23:53:43.539Z,99.90
2022-09-20T23:56:11.275Z,99.90
2022-09-20T23:58:39.355Z,99.90
